sensor_id;sensor_type;location;lat;lon;timestamp;P1;durP1;ratioP1;P2;durP2;ratioP2
56537;SDS011;42435;53.292;6.000;2024-01-30T00:00:07;32.22;;;21.45;;
56537;SDS011;42435;53.292;6.000;2024-01-30T00:02:36;32.25;;;22.10;;
56537;SDS011;42435;53.292;6.000;2024-01-30T00:05:02;33.05;;;21.75;;
56537;SDS011;42435;53.292;6.000;2024-01-30T00:07:28;32.97;;;21.85;;
56537;SDS011;42435;53.292;6.000;2024-01-30T00:09:57;36.50;;;23.15;;
56537;SDS011;42435;53.292;6.000;2024-01-30T00:12:25;30.77;;;21.70;;
56537;SDS011;42435;53.292;6.000;2024-01-30T00:14:51;34.08;;;22.95;;
56537;SDS011;42435;53.292;6.000;2024-01-30T00:17:17;31.67;;;22.15;;
56537;SDS011;42435;53.292;6.000;2024-01-30T00:19:44;31.65;;;22.45;;
56537;SDS011;42435;53.292;6.000;2024-01-30T00:22:09;30.83;;;21.77;;
56537;SDS011;42435;53.292;6.000;2024-01-30T00:24:35;35.45;;;23.27;;
56537;SDS011;42435;53.292;6.000;2024-01-30T00:27:01;36.38;;;23.45;;
56537;SDS011;42435;53.292;6.000;2024-01-30T00:29:27;32.28;;;22.55;;
56537;SDS011;42435;53.292;6.000;2024-01-30T00:31:56;34.22;;;22.55;;
56537;SDS011;42435;53.292;6.000;2024-01-30T00:34:21;34.17;;;22.67;;
56537;SDS011;42435;53.292;6.000;2024-01-30T00:36:47;34.83;;;22.63;;
56537;SDS011;42435;53.292;6.000;2024-01-30T00:39:13;33.65;;;22.08;;
56537;SDS011;42435;53.292;6.000;2024-01-30T00:41:41;32.40;;;22.23;;
56537;SDS011;42435;53.292;6.000;2024-01-30T00:44:06;33.78;;;22.67;;
56537;SDS011;42435;53.292;6.000;2024-01-30T00:46:32;35.78;;;21.98;;
56537;SDS011;42435;53.292;6.000;2024-01-30T00:48:58;35.38;;;22.92;;
56537;SDS011;42435;53.292;6.000;2024-01-30T00:51:23;33.92;;;23.48;;
56537;SDS011;42435;53.292;6.000;2024-01-30T00:53:53;32.38;;;21.80;;
56537;SDS011;42435;53.292;6.000;2024-01-30T00:56:19;36.10;;;23.08;;
56537;SDS011;42435;53.292;6.000;2024-01-30T00:58:44;34.95;;;23.02;;
56537;SDS011;42435;53.292;6.000;2024-01-30T01:01:10;32.08;;;22.60;;
56537;SDS011;42435;53.292;6.000;2024-01-30T01:03:36;37.90;;;22.95;;
56537;SDS011;42435;53.292;6.000;2024-01-30T01:06:02;36.33;;;23.15;;
56537;SDS011;42435;53.292;6.000;2024-01-30T01:08:28;35.85;;;23.30;;
56537;SDS011;42435;53.292;6.000;2024-01-30T01:10:53;35.90;;;23.58;;
56537;SDS011;42435;53.292;6.000;2024-01-30T01:13:19;34.03;;;21.88;;
56537;SDS011;42435;53.292;6.000;2024-01-30T01:15:45;31.10;;;21.42;;
56537;SDS011;42435;53.292;6.000;2024-01-30T01:18:10;33.28;;;21.83;;
56537;SDS011;42435;53.292;6.000;2024-01-30T01:20:37;36.25;;;22.38;;
56537;SDS011;42435;53.292;6.000;2024-01-30T01:23:03;31.90;;;22.13;;
56537;SDS011;42435;53.292;6.000;2024-01-30T01:25:29;34.83;;;22.88;;
56537;SDS011;42435;53.292;6.000;2024-01-30T01:27:54;31.75;;;21.08;;
56537;SDS011;42435;53.292;6.000;2024-01-30T01:30:20;33.65;;;22.58;;
56537;SDS011;42435;53.292;6.000;2024-01-30T01:32:50;35.70;;;23.17;;
56537;SDS011;42435;53.292;6.000;2024-01-30T01:35:23;33.63;;;21.92;;
56537;SDS011;42435;53.292;6.000;2024-01-30T01:37:53;33.28;;;21.75;;
56537;SDS011;42435;53.292;6.000;2024-01-30T01:40:26;32.95;;;22.88;;
56537;SDS011;42435;53.292;6.000;2024-01-30T01:42:52;30.48;;;22.70;;
56537;SDS011;42435;53.292;6.000;2024-01-30T01:45:19;33.67;;;22.30;;
56537;SDS011;42435;53.292;6.000;2024-01-30T01:47:53;29.63;;;21.90;;
56537;SDS011;42435;53.292;6.000;2024-01-30T01:50:20;32.53;;;22.15;;
56537;SDS011;42435;53.292;6.000;2024-01-30T01:52:48;33.50;;;21.23;;
56537;SDS011;42435;53.292;6.000;2024-01-30T01:55:14;32.35;;;21.65;;
56537;SDS011;42435;53.292;6.000;2024-01-30T01:57:47;34.70;;;21.05;;
56537;SDS011;42435;53.292;6.000;2024-01-30T02:00:13;33.50;;;21.75;;
56537;SDS011;42435;53.292;6.000;2024-01-30T02:02:40;32.45;;;21.90;;
56537;SDS011;42435;53.292;6.000;2024-01-30T02:05:08;35.78;;;22.27;;
56537;SDS011;42435;53.292;6.000;2024-01-30T02:07:34;31.42;;;21.65;;
56537;SDS011;42435;53.292;6.000;2024-01-30T02:09:59;33.10;;;21.15;;
56537;SDS011;42435;53.292;6.000;2024-01-30T02:12:29;32.45;;;22.05;;
56537;SDS011;42435;53.292;6.000;2024-01-30T02:14:55;33.42;;;21.48;;
56537;SDS011;42435;53.292;6.000;2024-01-30T02:17:21;30.38;;;20.38;;
56537;SDS011;42435;53.292;6.000;2024-01-30T02:19:48;33.08;;;22.60;;
56537;SDS011;42435;53.292;6.000;2024-01-30T02:22:15;31.67;;;22.23;;
56537;SDS011;42435;53.292;6.000;2024-01-30T02:24:41;33.88;;;21.45;;
56537;SDS011;42435;53.292;6.000;2024-01-30T02:27:07;35.45;;;21.63;;
56537;SDS011;42435;53.292;6.000;2024-01-30T02:29:34;31.73;;;21.63;;
56537;SDS011;42435;53.292;6.000;2024-01-30T02:32:00;32.90;;;21.38;;
56537;SDS011;42435;53.292;6.000;2024-01-30T02:34:25;34.08;;;21.52;;
56537;SDS011;42435;53.292;6.000;2024-01-30T02:36:51;29.52;;;21.00;;
56537;SDS011;42435;53.292;6.000;2024-01-30T02:39:18;30.17;;;20.33;;
56537;SDS011;42435;53.292;6.000;2024-01-30T02:41:45;29.35;;;20.60;;
56537;SDS011;42435;53.292;6.000;2024-01-30T02:44:10;31.98;;;21.20;;
56537;SDS011;42435;53.292;6.000;2024-01-30T02:46:36;31.02;;;20.10;;
56537;SDS011;42435;53.292;6.000;2024-01-30T02:49:02;31.38;;;20.83;;
56537;SDS011;42435;53.292;6.000;2024-01-30T02:51:28;30.85;;;20.42;;
56537;SDS011;42435;53.292;6.000;2024-01-30T02:53:53;33.05;;;21.15;;
56537;SDS011;42435;53.292;6.000;2024-01-30T02:56:20;35.55;;;22.17;;
56537;SDS011;42435;53.292;6.000;2024-01-30T02:58:46;29.52;;;20.90;;
56537;SDS011;42435;53.292;6.000;2024-01-30T03:01:12;29.88;;;20.73;;
56537;SDS011;42435;53.292;6.000;2024-01-30T03:03:38;31.92;;;20.33;;
56537;SDS011;42435;53.292;6.000;2024-01-30T03:06:05;31.10;;;19.70;;
56537;SDS011;42435;53.292;6.000;2024-01-30T03:08:33;29.77;;;20.50;;
56537;SDS011;42435;53.292;6.000;2024-01-30T03:11:00;32.60;;;20.38;;
56537;SDS011;42435;53.292;6.000;2024-01-30T03:13:26;29.17;;;19.17;;
56537;SDS011;42435;53.292;6.000;2024-01-30T03:15:52;31.20;;;19.98;;
56537;SDS011;42435;53.292;6.000;2024-01-30T03:18:18;30.27;;;20.27;;
56537;SDS011;42435;53.292;6.000;2024-01-30T03:20:44;29.13;;;19.65;;
56537;SDS011;42435;53.292;6.000;2024-01-30T03:23:10;32.17;;;20.73;;
56537;SDS011;42435;53.292;6.000;2024-01-30T03:25:35;28.42;;;19.15;;
56537;SDS011;42435;53.292;6.000;2024-01-30T03:28:01;26.75;;;19.80;;
56537;SDS011;42435;53.292;6.000;2024-01-30T03:30:28;32.10;;;20.38;;
56537;SDS011;42435;53.292;6.000;2024-01-30T03:32:54;31.17;;;20.58;;
56537;SDS011;42435;53.292;6.000;2024-01-30T03:35:19;30.40;;;19.88;;
56537;SDS011;42435;53.292;6.000;2024-01-30T03:37:45;30.42;;;20.30;;
56537;SDS011;42435;53.292;6.000;2024-01-30T03:40:11;32.50;;;20.95;;
56537;SDS011;42435;53.292;6.000;2024-01-30T03:42:37;29.65;;;19.08;;
56537;SDS011;42435;53.292;6.000;2024-01-30T03:45:04;29.20;;;20.42;;
56537;SDS011;42435;53.292;6.000;2024-01-30T03:47:30;30.70;;;19.85;;
56537;SDS011;42435;53.292;6.000;2024-01-30T03:49:57;32.95;;;19.92;;
56537;SDS011;42435;53.292;6.000;2024-01-30T03:52:23;30.75;;;20.58;;
56537;SDS011;42435;53.292;6.000;2024-01-30T03:54:48;27.90;;;19.83;;
56537;SDS011;42435;53.292;6.000;2024-01-30T03:57:17;28.40;;;18.67;;
56537;SDS011;42435;53.292;6.000;2024-01-30T03:59:43;32.63;;;20.05;;
56537;SDS011;42435;53.292;6.000;2024-01-30T04:02:09;30.50;;;19.50;;
56537;SDS011;42435;53.292;6.000;2024-01-30T04:04:36;29.95;;;20.02;;
56537;SDS011;42435;53.292;6.000;2024-01-30T04:07:02;29.55;;;18.63;;
56537;SDS011;42435;53.292;6.000;2024-01-30T04:09:28;30.65;;;19.13;;
56537;SDS011;42435;53.292;6.000;2024-01-30T04:11:53;29.77;;;18.42;;
56537;SDS011;42435;53.292;6.000;2024-01-30T04:14:19;27.20;;;18.40;;
56537;SDS011;42435;53.292;6.000;2024-01-30T04:16:45;25.38;;;17.23;;
56537;SDS011;42435;53.292;6.000;2024-01-30T04:19:10;30.90;;;18.65;;
56537;SDS011;42435;53.292;6.000;2024-01-30T04:21:36;30.70;;;18.88;;
56537;SDS011;42435;53.292;6.000;2024-01-30T04:24:02;27.65;;;18.42;;
56537;SDS011;42435;53.292;6.000;2024-01-30T04:26:27;25.75;;;17.05;;
56537;SDS011;42435;53.292;6.000;2024-01-30T04:28:53;28.15;;;18.85;;
56537;SDS011;42435;53.292;6.000;2024-01-30T04:31:22;26.98;;;17.70;;
56537;SDS011;42435;53.292;6.000;2024-01-30T04:33:48;26.90;;;18.40;;
56537;SDS011;42435;53.292;6.000;2024-01-30T04:36:13;26.20;;;17.42;;
56537;SDS011;42435;53.292;6.000;2024-01-30T04:38:39;26.15;;;18.98;;
56537;SDS011;42435;53.292;6.000;2024-01-30T04:41:05;24.17;;;16.35;;
56537;SDS011;42435;53.292;6.000;2024-01-30T04:43:30;27.75;;;18.90;;
56537;SDS011;42435;53.292;6.000;2024-01-30T04:45:56;25.48;;;17.23;;
56537;SDS011;42435;53.292;6.000;2024-01-30T04:48:22;27.70;;;17.10;;
56537;SDS011;42435;53.292;6.000;2024-01-30T04:50:47;24.55;;;15.93;;
56537;SDS011;42435;53.292;6.000;2024-01-30T04:53:13;26.63;;;17.02;;
56537;SDS011;42435;53.292;6.000;2024-01-30T04:55:38;25.05;;;16.88;;
56537;SDS011;42435;53.292;6.000;2024-01-30T04:58:05;25.80;;;16.90;;
56537;SDS011;42435;53.292;6.000;2024-01-30T05:00:31;23.02;;;15.85;;
56537;SDS011;42435;53.292;6.000;2024-01-30T05:02:57;25.58;;;17.35;;
56537;SDS011;42435;53.292;6.000;2024-01-30T05:05:23;25.30;;;17.63;;
56537;SDS011;42435;53.292;6.000;2024-01-30T05:07:49;26.55;;;17.25;;
56537;SDS011;42435;53.292;6.000;2024-01-30T05:10:14;23.40;;;16.45;;
56537;SDS011;42435;53.292;6.000;2024-01-30T05:12:46;25.85;;;17.13;;
56537;SDS011;42435;53.292;6.000;2024-01-30T05:15:14;26.23;;;18.17;;
56537;SDS011;42435;53.292;6.000;2024-01-30T05:17:41;23.80;;;16.90;;
56537;SDS011;42435;53.292;6.000;2024-01-30T05:20:06;25.35;;;17.60;;
56537;SDS011;42435;53.292;6.000;2024-01-30T05:22:32;24.20;;;16.10;;
56537;SDS011;42435;53.292;6.000;2024-01-30T05:24:58;25.95;;;16.30;;
56537;SDS011;42435;53.292;6.000;2024-01-30T05:27:23;25.00;;;16.30;;
56537;SDS011;42435;53.292;6.000;2024-01-30T05:29:49;22.77;;;16.60;;
56537;SDS011;42435;53.292;6.000;2024-01-30T05:32:18;22.85;;;15.23;;
56537;SDS011;42435;53.292;6.000;2024-01-30T05:34:44;28.50;;;16.77;;
56537;SDS011;42435;53.292;6.000;2024-01-30T05:37:09;22.92;;;15.73;;
56537;SDS011;42435;53.292;6.000;2024-01-30T05:39:39;25.98;;;15.32;;
56537;SDS011;42435;53.292;6.000;2024-01-30T05:42:04;25.40;;;16.58;;
56537;SDS011;42435;53.292;6.000;2024-01-30T05:44:31;23.80;;;16.23;;
56537;SDS011;42435;53.292;6.000;2024-01-30T05:46:56;22.65;;;15.73;;
56537;SDS011;42435;53.292;6.000;2024-01-30T05:49:22;22.48;;;15.63;;
56537;SDS011;42435;53.292;6.000;2024-01-30T05:51:48;22.90;;;15.82;;
56537;SDS011;42435;53.292;6.000;2024-01-30T05:54:13;23.38;;;15.50;;
56537;SDS011;42435;53.292;6.000;2024-01-30T05:56:39;23.05;;;15.77;;
56537;SDS011;42435;53.292;6.000;2024-01-30T05:59:08;23.67;;;16.20;;
56537;SDS011;42435;53.292;6.000;2024-01-30T06:01:35;23.55;;;15.50;;
56537;SDS011;42435;53.292;6.000;2024-01-30T06:04:01;27.58;;;17.20;;
56537;SDS011;42435;53.292;6.000;2024-01-30T06:06:26;23.33;;;15.80;;
56537;SDS011;42435;53.292;6.000;2024-01-30T06:08:53;27.65;;;17.55;;
56537;SDS011;42435;53.292;6.000;2024-01-30T06:11:21;22.65;;;15.50;;
56537;SDS011;42435;53.292;6.000;2024-01-30T06:13:46;25.15;;;16.60;;
56537;SDS011;42435;53.292;6.000;2024-01-30T06:16:12;27.75;;;18.23;;
56537;SDS011;42435;53.292;6.000;2024-01-30T06:18:38;27.88;;;18.77;;
56537;SDS011;42435;53.292;6.000;2024-01-30T06:21:04;25.00;;;15.27;;
56537;SDS011;42435;53.292;6.000;2024-01-30T06:23:30;22.17;;;16.00;;
56537;SDS011;42435;53.292;6.000;2024-01-30T06:25:55;24.02;;;16.27;;
56537;SDS011;42435;53.292;6.000;2024-01-30T06:28:21;23.20;;;16.00;;
56537;SDS011;42435;53.292;6.000;2024-01-30T06:30:47;22.80;;;16.50;;
56537;SDS011;42435;53.292;6.000;2024-01-30T06:33:13;24.13;;;16.33;;
56537;SDS011;42435;53.292;6.000;2024-01-30T06:35:38;21.73;;;15.82;;
56537;SDS011;42435;53.292;6.000;2024-01-30T06:38:05;24.50;;;15.02;;
56537;SDS011;42435;53.292;6.000;2024-01-30T06:40:31;26.27;;;16.13;;
56537;SDS011;42435;53.292;6.000;2024-01-30T06:42:57;24.70;;;16.38;;
56537;SDS011;42435;53.292;6.000;2024-01-30T06:45:22;26.50;;;16.92;;
56537;SDS011;42435;53.292;6.000;2024-01-30T06:47:48;24.80;;;16.38;;
56537;SDS011;42435;53.292;6.000;2024-01-30T06:50:14;34.78;;;19.88;;
56537;SDS011;42435;53.292;6.000;2024-01-30T06:52:39;25.52;;;17.77;;
56537;SDS011;42435;53.292;6.000;2024-01-30T06:55:05;25.30;;;15.98;;
56537;SDS011;42435;53.292;6.000;2024-01-30T06:57:31;22.15;;;16.10;;
56537;SDS011;42435;53.292;6.000;2024-01-30T06:59:57;22.85;;;15.63;;
56537;SDS011;42435;53.292;6.000;2024-01-30T07:02:23;26.92;;;17.70;;
56537;SDS011;42435;53.292;6.000;2024-01-30T07:04:48;25.80;;;17.45;;
56537;SDS011;42435;53.292;6.000;2024-01-30T07:07:14;24.77;;;16.67;;
56537;SDS011;42435;53.292;6.000;2024-01-30T07:09:40;24.98;;;16.85;;
56537;SDS011;42435;53.292;6.000;2024-01-30T07:12:06;22.80;;;16.13;;
56537;SDS011;42435;53.292;6.000;2024-01-30T07:14:33;23.10;;;16.85;;
56537;SDS011;42435;53.292;6.000;2024-01-30T07:16:58;23.38;;;15.85;;
56537;SDS011;42435;53.292;6.000;2024-01-30T07:19:24;27.05;;;17.33;;
56537;SDS011;42435;53.292;6.000;2024-01-30T07:21:50;26.73;;;16.10;;
56537;SDS011;42435;53.292;6.000;2024-01-30T07:24:15;23.42;;;15.95;;
56537;SDS011;42435;53.292;6.000;2024-01-30T07:26:42;22.80;;;15.23;;
56537;SDS011;42435;53.292;6.000;2024-01-30T07:29:08;25.02;;;15.30;;
56537;SDS011;42435;53.292;6.000;2024-01-30T07:31:33;22.65;;;15.43;;
56537;SDS011;42435;53.292;6.000;2024-01-30T07:34:01;21.85;;;14.68;;
56537;SDS011;42435;53.292;6.000;2024-01-30T07:36:27;25.52;;;16.52;;
56537;SDS011;42435;53.292;6.000;2024-01-30T07:38:53;25.52;;;16.20;;
56537;SDS011;42435;53.292;6.000;2024-01-30T07:41:19;25.02;;;15.77;;
56537;SDS011;42435;53.292;6.000;2024-01-30T07:43:45;22.00;;;14.88;;
56537;SDS011;42435;53.292;6.000;2024-01-30T07:46:11;23.20;;;15.43;;
56537;SDS011;42435;53.292;6.000;2024-01-30T07:48:36;23.35;;;14.48;;
56537;SDS011;42435;53.292;6.000;2024-01-30T07:51:02;24.08;;;15.48;;
56537;SDS011;42435;53.292;6.000;2024-01-30T07:53:29;19.65;;;13.82;;
56537;SDS011;42435;53.292;6.000;2024-01-30T07:55:54;24.67;;;16.17;;
56537;SDS011;42435;53.292;6.000;2024-01-30T07:58:20;25.63;;;16.13;;
56537;SDS011;42435;53.292;6.000;2024-01-30T08:00:46;29.05;;;15.75;;
56537;SDS011;42435;53.292;6.000;2024-01-30T08:03:12;22.63;;;14.48;;
56537;SDS011;42435;53.292;6.000;2024-01-30T08:05:37;23.70;;;15.73;;
56537;SDS011;42435;53.292;6.000;2024-01-30T08:08:04;23.25;;;15.35;;
56537;SDS011;42435;53.292;6.000;2024-01-30T08:10:31;23.75;;;14.27;;
56537;SDS011;42435;53.292;6.000;2024-01-30T08:12:56;24.23;;;14.35;;
56537;SDS011;42435;53.292;6.000;2024-01-30T08:15:22;23.27;;;14.45;;
56537;SDS011;42435;53.292;6.000;2024-01-30T08:17:48;22.05;;;15.52;;
56537;SDS011;42435;53.292;6.000;2024-01-30T08:20:14;21.13;;;14.48;;
56537;SDS011;42435;53.292;6.000;2024-01-30T08:22:41;19.77;;;13.82;;
56537;SDS011;42435;53.292;6.000;2024-01-30T08:25:10;21.77;;;15.25;;
56537;SDS011;42435;53.292;6.000;2024-01-30T08:27:35;22.35;;;13.95;;
56537;SDS011;42435;53.292;6.000;2024-01-30T08:30:03;21.45;;;14.35;;
56537;SDS011;42435;53.292;6.000;2024-01-30T08:32:31;21.92;;;15.15;;
56537;SDS011;42435;53.292;6.000;2024-01-30T08:34:57;22.95;;;14.50;;
56537;SDS011;42435;53.292;6.000;2024-01-30T08:37:23;20.80;;;13.93;;
56537;SDS011;42435;53.292;6.000;2024-01-30T08:39:50;23.88;;;15.05;;
56537;SDS011;42435;53.292;6.000;2024-01-30T08:42:16;24.15;;;15.73;;
56537;SDS011;42435;53.292;6.000;2024-01-30T08:44:47;22.90;;;13.52;;
56537;SDS011;42435;53.292;6.000;2024-01-30T08:47:14;25.38;;;14.75;;
56537;SDS011;42435;53.292;6.000;2024-01-30T08:49:42;22.17;;;14.07;;
56537;SDS011;42435;53.292;6.000;2024-01-30T08:52:09;19.60;;;13.73;;
56537;SDS011;42435;53.292;6.000;2024-01-30T08:54:36;19.33;;;13.40;;
56537;SDS011;42435;53.292;6.000;2024-01-30T08:57:01;21.80;;;14.02;;
56537;SDS011;42435;53.292;6.000;2024-01-30T08:59:27;20.45;;;14.30;;
56537;SDS011;42435;53.292;6.000;2024-01-30T09:01:53;21.20;;;14.35;;
56537;SDS011;42435;53.292;6.000;2024-01-30T09:04:21;19.23;;;13.70;;
56537;SDS011;42435;53.292;6.000;2024-01-30T09:06:47;21.88;;;14.50;;
56537;SDS011;42435;53.292;6.000;2024-01-30T09:09:17;23.23;;;14.50;;
56537;SDS011;42435;53.292;6.000;2024-01-30T09:11:44;25.70;;;15.38;;
56537;SDS011;42435;53.292;6.000;2024-01-30T09:14:10;19.58;;;13.80;;
56537;SDS011;42435;53.292;6.000;2024-01-30T09:16:36;22.42;;;14.25;;
56537;SDS011;42435;53.292;6.000;2024-01-30T09:19:02;22.73;;;14.70;;
56537;SDS011;42435;53.292;6.000;2024-01-30T09:21:29;23.48;;;13.43;;
56537;SDS011;42435;53.292;6.000;2024-01-30T09:24:01;23.23;;;13.30;;
56537;SDS011;42435;53.292;6.000;2024-01-30T09:26:31;18.38;;;12.73;;
56537;SDS011;42435;53.292;6.000;2024-01-30T09:28:58;24.10;;;13.93;;
56537;SDS011;42435;53.292;6.000;2024-01-30T09:31:24;19.25;;;12.43;;
56537;SDS011;42435;53.292;6.000;2024-01-30T09:33:49;22.08;;;12.10;;
56537;SDS011;42435;53.292;6.000;2024-01-30T09:36:17;20.80;;;13.02;;
56537;SDS011;42435;53.292;6.000;2024-01-30T09:38:44;26.15;;;14.02;;
56537;SDS011;42435;53.292;6.000;2024-01-30T09:41:10;23.95;;;14.00;;
56537;SDS011;42435;53.292;6.000;2024-01-30T09:43:37;27.25;;;13.32;;
56537;SDS011;42435;53.292;6.000;2024-01-30T09:46:11;22.73;;;13.82;;
56537;SDS011;42435;53.292;6.000;2024-01-30T09:48:39;20.85;;;12.77;;
56537;SDS011;42435;53.292;6.000;2024-01-30T09:51:09;17.88;;;12.52;;
56537;SDS011;42435;53.292;6.000;2024-01-30T09:53:35;19.77;;;12.65;;
56537;SDS011;42435;53.292;6.000;2024-01-30T09:56:02;21.70;;;12.32;;
56537;SDS011;42435;53.292;6.000;2024-01-30T09:58:29;23.83;;;12.75;;
56537;SDS011;42435;53.292;6.000;2024-01-30T10:00:55;21.90;;;12.70;;
56537;SDS011;42435;53.292;6.000;2024-01-30T10:03:21;23.35;;;13.50;;
56537;SDS011;42435;53.292;6.000;2024-01-30T10:05:53;21.17;;;13.13;;
56537;SDS011;42435;53.292;6.000;2024-01-30T10:08:21;17.42;;;12.25;;
56537;SDS011;42435;53.292;6.000;2024-01-30T10:10:47;21.02;;;12.40;;
56537;SDS011;42435;53.292;6.000;2024-01-30T10:13:16;17.90;;;9.80;;
56537;SDS011;42435;53.292;6.000;2024-01-30T10:15:52;18.67;;;10.27;;
56537;SDS011;42435;53.292;6.000;2024-01-30T10:18:24;20.35;;;10.85;;
56537;SDS011;42435;53.292;6.000;2024-01-30T10:20:51;18.73;;;11.63;;
56537;SDS011;42435;53.292;6.000;2024-01-30T10:23:17;19.10;;;10.57;;
56537;SDS011;42435;53.292;6.000;2024-01-30T10:25:44;12.98;;;9.18;;
56537;SDS011;42435;53.292;6.000;2024-01-30T10:28:10;18.92;;;9.75;;
56537;SDS011;42435;53.292;6.000;2024-01-30T10:30:36;22.05;;;10.52;;
56537;SDS011;42435;53.292;6.000;2024-01-30T10:33:02;22.75;;;11.07;;
56537;SDS011;42435;53.292;6.000;2024-01-30T10:35:28;20.30;;;9.60;;
56537;SDS011;42435;53.292;6.000;2024-01-30T10:37:56;15.77;;;8.95;;
56537;SDS011;42435;53.292;6.000;2024-01-30T10:40:24;16.88;;;9.30;;
56537;SDS011;42435;53.292;6.000;2024-01-30T10:42:54;13.98;;;8.32;;
56537;SDS011;42435;53.292;6.000;2024-01-30T10:45:22;17.67;;;8.82;;
56537;SDS011;42435;53.292;6.000;2024-01-30T10:47:50;15.88;;;7.95;;
56537;SDS011;42435;53.292;6.000;2024-01-30T10:50:18;15.20;;;7.40;;
56537;SDS011;42435;53.292;6.000;2024-01-30T10:52:45;17.60;;;7.00;;
56537;SDS011;42435;53.292;6.000;2024-01-30T10:55:12;16.38;;;6.75;;
56537;SDS011;42435;53.292;6.000;2024-01-30T10:57:41;18.05;;;6.25;;
56537;SDS011;42435;53.292;6.000;2024-01-30T11:00:08;13.32;;;6.18;;
56537;SDS011;42435;53.292;6.000;2024-01-30T11:02:45;11.50;;;5.40;;
56537;SDS011;42435;53.292;6.000;2024-01-30T11:05:15;11.23;;;5.18;;
56537;SDS011;42435;53.292;6.000;2024-01-30T11:07:52;15.30;;;6.03;;
56537;SDS011;42435;53.292;6.000;2024-01-30T11:10:19;14.35;;;5.70;;
56537;SDS011;42435;53.292;6.000;2024-01-30T11:12:45;12.75;;;4.43;;
56537;SDS011;42435;53.292;6.000;2024-01-30T11:15:15;9.48;;;3.67;;
56537;SDS011;42435;53.292;6.000;2024-01-30T11:20:14;9.02;;;2.63;;
56537;SDS011;42435;53.292;6.000;2024-01-30T11:22:51;6.68;;;2.33;;
56537;SDS011;42435;53.292;6.000;2024-01-30T11:25:20;8.20;;;2.40;;
56537;SDS011;42435;53.292;6.000;2024-01-30T11:27:46;5.57;;;1.40;;
56537;SDS011;42435;53.292;6.000;2024-01-30T11:30:25;7.00;;;1.92;;
56537;SDS011;42435;53.292;6.000;2024-01-30T11:35:35;5.90;;;1.65;;
56537;SDS011;42435;53.292;6.000;2024-01-30T11:38:06;5.03;;;1.65;;
56537;SDS011;42435;53.292;6.000;2024-01-30T11:40:34;3.00;;;1.80;;
56537;SDS011;42435;53.292;6.000;2024-01-30T11:43:06;5.72;;;1.88;;
56537;SDS011;42435;53.292;6.000;2024-01-30T11:45:32;5.35;;;2.15;;
56537;SDS011;42435;53.292;6.000;2024-01-30T11:47:59;6.55;;;2.00;;
56537;SDS011;42435;53.292;6.000;2024-01-30T11:50:28;6.63;;;1.55;;
56537;SDS011;42435;53.292;6.000;2024-01-30T11:52:54;4.93;;;1.63;;
56537;SDS011;42435;53.292;6.000;2024-01-30T11:55:20;6.15;;;1.50;;
56537;SDS011;42435;53.292;6.000;2024-01-30T11:57:46;6.70;;;1.90;;
56537;SDS011;42435;53.292;6.000;2024-01-30T12:00:16;4.35;;;2.25;;
56537;SDS011;42435;53.292;6.000;2024-01-30T12:02:53;6.57;;;1.85;;
56537;SDS011;42435;53.292;6.000;2024-01-30T12:05:26;6.13;;;1.90;;
56537;SDS011;42435;53.292;6.000;2024-01-30T12:07:53;6.97;;;2.05;;
56537;SDS011;42435;53.292;6.000;2024-01-30T12:10:19;5.53;;;2.47;;
56537;SDS011;42435;53.292;6.000;2024-01-30T12:12:46;7.80;;;2.20;;
56537;SDS011;42435;53.292;6.000;2024-01-30T12:15:14;5.45;;;2.13;;
56537;SDS011;42435;53.292;6.000;2024-01-30T12:17:41;7.75;;;2.35;;
56537;SDS011;42435;53.292;6.000;2024-01-30T12:25:10;5.43;;;2.20;;
56537;SDS011;42435;53.292;6.000;2024-01-30T12:27:37;8.20;;;2.28;;
56537;SDS011;42435;53.292;6.000;2024-01-30T12:30:07;6.68;;;2.22;;
56537;SDS011;42435;53.292;6.000;2024-01-30T12:32:40;5.20;;;1.95;;
56537;SDS011;42435;53.292;6.000;2024-01-30T12:35:14;5.55;;;1.80;;
56537;SDS011;42435;53.292;6.000;2024-01-30T12:37:44;6.47;;;1.98;;
56537;SDS011;42435;53.292;6.000;2024-01-30T12:40:13;8.35;;;1.98;;
56537;SDS011;42435;53.292;6.000;2024-01-30T12:42:40;4.05;;;1.70;;
56537;SDS011;42435;53.292;6.000;2024-01-30T12:45:11;6.15;;;1.77;;
56537;SDS011;42435;53.292;6.000;2024-01-30T12:47:37;5.82;;;2.00;;
56537;SDS011;42435;53.292;6.000;2024-01-30T12:50:03;7.32;;;2.17;;
56537;SDS011;42435;53.292;6.000;2024-01-30T12:52:29;7.38;;;1.88;;
56537;SDS011;42435;53.292;6.000;2024-01-30T12:54:55;4.30;;;1.88;;
56537;SDS011;42435;53.292;6.000;2024-01-30T12:57:22;4.90;;;1.70;;
56537;SDS011;42435;53.292;6.000;2024-01-30T12:59:48;3.47;;;1.98;;
56537;SDS011;42435;53.292;6.000;2024-01-30T13:02:14;5.90;;;2.08;;
56537;SDS011;42435;53.292;6.000;2024-01-30T13:04:40;3.60;;;1.90;;
56537;SDS011;42435;53.292;6.000;2024-01-30T13:07:07;8.43;;;2.88;;
56537;SDS011;42435;53.292;6.000;2024-01-30T13:09:33;6.55;;;2.20;;
56537;SDS011;42435;53.292;6.000;2024-01-30T13:12:00;5.68;;;1.63;;
56537;SDS011;42435;53.292;6.000;2024-01-30T13:14:30;6.80;;;2.30;;
56537;SDS011;42435;53.292;6.000;2024-01-30T13:16:55;5.20;;;2.00;;
56537;SDS011;42435;53.292;6.000;2024-01-30T13:19:21;6.25;;;2.78;;
56537;SDS011;42435;53.292;6.000;2024-01-30T13:21:47;2.90;;;1.80;;
56537;SDS011;42435;53.292;6.000;2024-01-30T13:24:13;4.95;;;1.95;;
56537;SDS011;42435;53.292;6.000;2024-01-30T13:26:39;4.75;;;1.92;;
56537;SDS011;42435;53.292;6.000;2024-01-30T13:29:05;3.72;;;1.70;;
56537;SDS011;42435;53.292;6.000;2024-01-30T13:31:31;3.53;;;1.83;;
56537;SDS011;42435;53.292;6.000;2024-01-30T13:33:57;4.00;;;1.63;;
56537;SDS011;42435;53.292;6.000;2024-01-30T13:36:25;5.13;;;1.52;;
56537;SDS011;42435;53.292;6.000;2024-01-30T13:38:52;3.47;;;1.60;;
56537;SDS011;42435;53.292;6.000;2024-01-30T13:41:18;5.03;;;1.70;;
56537;SDS011;42435;53.292;6.000;2024-01-30T13:43:45;4.10;;;1.52;;
56537;SDS011;42435;53.292;6.000;2024-01-30T13:46:11;2.63;;;1.85;;
56537;SDS011;42435;53.292;6.000;2024-01-30T13:48:37;4.07;;;2.15;;
56537;SDS011;42435;53.292;6.000;2024-01-30T13:51:03;3.30;;;2.00;;
56537;SDS011;42435;53.292;6.000;2024-01-30T13:53:29;7.22;;;2.60;;
56537;SDS011;42435;53.292;6.000;2024-01-30T13:55:54;5.32;;;2.15;;
56537;SDS011;42435;53.292;6.000;2024-01-30T13:58:20;5.13;;;2.53;;
56537;SDS011;42435;53.292;6.000;2024-01-30T14:00:47;7.03;;;3.17;;
56537;SDS011;42435;53.292;6.000;2024-01-30T14:03:12;4.95;;;3.20;;
56537;SDS011;42435;53.292;6.000;2024-01-30T14:05:39;6.90;;;3.70;;
56537;SDS011;42435;53.292;6.000;2024-01-30T14:08:05;5.28;;;3.25;;
56537;SDS011;42435;53.292;6.000;2024-01-30T14:10:32;5.60;;;3.47;;
56537;SDS011;42435;53.292;6.000;2024-01-30T14:12:59;9.00;;;4.32;;
56537;SDS011;42435;53.292;6.000;2024-01-30T14:15:25;5.30;;;3.13;;
56537;SDS011;42435;53.292;6.000;2024-01-30T14:17:51;5.43;;;2.63;;
56537;SDS011;42435;53.292;6.000;2024-01-30T14:20:21;5.07;;;2.75;;
56537;SDS011;42435;53.292;6.000;2024-01-30T14:22:50;6.45;;;2.38;;
56537;SDS011;42435;53.292;6.000;2024-01-30T14:25:16;5.00;;;2.72;;
56537;SDS011;42435;53.292;6.000;2024-01-30T14:27:42;8.88;;;4.00;;
56537;SDS011;42435;53.292;6.000;2024-01-30T14:30:10;5.47;;;3.28;;
56537;SDS011;42435;53.292;6.000;2024-01-30T14:32:36;7.43;;;2.92;;
56537;SDS011;42435;53.292;6.000;2024-01-30T14:35:03;8.60;;;2.88;;